Time;durP1;ratioP1;P1;durP2;ratioP2;P2;SDS_P1;SDS_P2;PMS_P1;PMS_P2;Temp;Humidity;BMP_temperature;BMP_pressure;BME280_temperature;BME280_humidity;BME280_pressure;Samples;Min_cycle;Max_cycle;Signal;HPM_P1;HPM_P2
2022/05/14 00:00:38;;;;;;;3.70;2.60;;;18.60;99.90;;;;;;4996809;28;20026;-77
2022/05/14 00:03:06;;;;;;;3.50;2.85;;;18.60;99.90;;;;;;4993696;28;20493;-77
2022/05/14 00:05:33;;;;;;;4.20;2.75;;;18.60;99.90;;;;;;4984849;28;20135;-76
2022/05/14 00:08:01;;;;;;;2.90;2.40;;;18.60;99.90;;;;;;4986820;28;20023;-78
2022/05/14 00:10:32;;;;;;;3.97;2.97;;;18.60;99.90;;;;;;4985266;28;20065;-77
2022/05/14 00:13:05;;;;;;;2.92;2.45;;;18.60;99.90;;;;;;4985959;28;20437;-77
2022/05/14 00:15:38;;;;;;;3.22;2.22;;;18.60;99.90;;;;;;4985948;28;20054;-77
2022/05/14 00:18:08;;;;;;;5.53;2.20;;;18.60;99.90;;;;;;4977060;28;20026;-76
2022/05/14 00:20:37;;;;;;;2.78;2.28;;;18.70;99.90;;;;;;4977085;28;20105;-76
2022/05/14 00:23:06;;;;;;;2.72;2.17;;;18.70;99.90;;;;;;4976878;28;20026;-76
2022/05/14 00:25:35;;;;;;;3.22;2.20;;;18.80;99.90;;;;;;4976868;28;20031;-77
2022/05/14 00:28:04;;;;;;;2.85;2.33;;;18.80;99.90;;;;;;4976851;28;20042;-76
2022/05/14 00:30:32;;;;;;;4.75;2.15;;;18.80;99.90;;;;;;4976600;28;20027;-76
2022/05/14 00:33:01;;;;;;;2.75;2.30;;;18.80;99.90;;;;;;4976681;28;20117;-79
2022/05/14 00:35:29;;;;;;;2.45;2.25;;;18.80;99.90;;;;;;4976705;28;20031;-76
2022/05/14 00:37:57;;;;;;;2.70;1.80;;;18.90;99.90;;;;;;4975861;28;20031;-77
2022/05/14 00:40:30;;;;;;;2.85;1.90;;;18.90;99.90;;;;;;4976603;28;20047;-76
2022/05/14 00:42:59;;;;;;;3.22;2.38;;;18.90;99.90;;;;;;4976403;28;20027;-74
2022/05/14 00:45:28;;;;;;;3.67;1.70;;;18.90;99.90;;;;;;4976390;28;20015;-77
2022/05/14 00:47:59;;;;;;;2.92;2.10;;;19.00;99.90;;;;;;4975636;28;20472;-76
2022/05/14 00:50:40;;;;;;;2.75;2.10;;;19.10;99.90;;;;;;4976218;28;20042;-77
2022/05/14 00:53:27;;;;;;;2.55;2.00;;;19.10;99.90;;;;;;4983970;28;20092;-74
2022/05/14 00:55:59;;;;;;;2.60;2.40;;;19.10;99.90;;;;;;4984962;28;20041;-75
2022/05/14 00:58:52;;;;;;;2.90;2.47;;;19.20;99.90;;;;;;4983971;28;20018;-76
2022/05/14 01:01:20;;;;;;;2.50;1.98;;;19.20;99.90;;;;;;4979397;28;20026;-75
2022/05/14 01:03:48;;;;;;;2.72;2.13;;;19.20;99.90;;;;;;4994486;28;20025;-75
2022/05/14 01:06:19;;;;;;;3.38;2.28;;;19.20;99.90;;;;;;4995475;28;20035;-75
2022/05/14 01:08:48;;;;;;;3.78;2.25;;;19.30;99.90;;;;;;4994943;28;20106;-77
2022/05/14 01:11:17;;;;;;;2.92;2.33;;;19.30;99.90;;;;;;4995607;28;20030;-77
2022/05/14 01:13:46;;;;;;;3.30;1.88;;;19.30;99.90;;;;;;4995429;28;20033;-78
2022/05/14 01:16:14;;;;;;;2.80;2.53;;;19.40;99.90;;;;;;4995417;28;20022;-77
2022/05/14 01:18:42;;;;;;;2.65;1.92;;;19.40;99.90;;;;;;4994861;28;20479;-78
2022/05/14 01:21:15;;;;;;;6.25;2.70;;;19.40;99.90;;;;;;4993400;28;20030;-77
2022/05/14 01:26:46;;;;;;;3.60;2.50;;;19.50;99.90;;;;;;4992910;28;20517;-78
2022/05/14 01:29:21;;;;;;;3.58;2.75;;;19.60;99.90;;;;;;4992425;28;20077;-75
2022/05/14 01:31:50;;;;;;;3.13;1.98;;;19.60;99.90;;;;;;4993054;28;20037;-75
2022/05/14 01:34:21;;;;;;;2.90;2.17;;;19.60;99.90;;;;;;4992952;28;20079;-78
2022/05/14 01:36:49;;;;;;;2.40;2.20;;;19.70;99.90;;;;;;4993122;28;20105;-78
2022/05/14 01:39:17;;;;;;;2.30;2.10;;;19.60;99.90;;;;;;4994740;28;20479;-77
2022/05/14 01:41:45;;;;;;;2.58;2.10;;;19.70;99.90;;;;;;4995083;28;20062;-76
2022/05/14 01:44:13;;;;;;;1.95;1.75;;;19.70;99.90;;;;;;4994851;28;20105;-79
2022/05/14 01:46:41;;;;;;;2.60;1.90;;;19.80;99.90;;;;;;4994748;28;20048;-77
2022/05/14 01:49:09;;;;;;;2.40;2.20;;;19.80;99.90;;;;;;4994243;28;20049;-74
2022/05/14 01:51:37;;;;;;;3.08;2.35;;;19.80;99.90;;;;;;4994299;28;20089;-75
2022/05/14 01:54:06;;;;;;;2.95;1.67;;;19.80;99.90;;;;;;4994550;28;20529;-73
2022/05/14 01:56:33;;;;;;;8.88;1.80;;;19.90;99.90;;;;;;4994852;28;20112;-75
2022/05/14 01:59:01;;;;;;;1.63;1.52;;;19.90;99.90;;;;;;4993724;28;20026;-75
2022/05/14 02:01:31;;;;;;;2.83;1.70;;;19.90;99.90;;;;;;4994296;28;20356;-75
2022/05/14 02:04:01;;;;;;;1.95;1.35;;;20.00;99.90;;;;;;4994487;28;20022;-74
2022/05/14 02:06:30;;;;;;;2.67;1.60;;;20.00;99.90;;;;;;4991032;28;20109;-74
2022/05/14 02:08:59;;;;;;;4.15;1.88;;;20.10;99.90;;;;;;4983398;28;20018;-75
2022/05/14 02:11:28;;;;;;;2.72;1.60;;;20.10;99.90;;;;;;4985219;28;20136;-75
2022/05/14 02:13:56;;;;;;;1.65;1.20;;;20.10;99.90;;;;;;4984412;28;20101;-75
2022/05/14 02:16:24;;;;;;;2.45;1.60;;;20.20;99.90;;;;;;4982822;28;20018;-72
2022/05/14 02:18:52;;;;;;;1.35;1.25;;;20.20;99.90;;;;;;4974482;28;20027;-75
2022/05/14 02:21:24;;;;;;;2.03;1.42;;;20.20;99.90;;;;;;4974812;28;20493;-73
2022/05/14 02:23:53;;;;;;;1.98;1.20;;;20.20;99.90;;;;;;4974301;28;20530;-75
2022/05/14 02:26:22;;;;;;;1.83;1.60;;;20.30;99.90;;;;;;4974573;28;20030;-72
2022/05/14 02:28:50;;;;;;;3.05;1.40;;;20.30;99.90;;;;;;4974245;28;20118;-73
2022/05/14 02:31:17;;;;;;;2.85;1.38;;;20.40;99.90;;;;;;4974798;28;20102;-75
2022/05/14 02:33:45;;;;;;;2.28;1.45;;;20.40;99.90;;;;;;4974686;28;20467;-77
2022/05/14 02:36:13;;;;;;;2.17;1.52;;;20.50;99.90;;;;;;4974685;28;20111;-75
2022/05/14 02:38:41;;;;;;;2.92;1.45;;;20.50;99.90;;;;;;4974401;28;20023;-75
2022/05/14 02:41:09;;;;;;;2.05;1.70;;;20.50;99.90;;;;;;4974625;28;20496;-75
2022/05/14 02:43:37;;;;;;;2.30;1.50;;;20.50;99.90;;;;;;4974537;28;20069;-73
2022/05/14 02:46:06;;;;;;;1.48;1.25;;;20.60;99.90;;;;;;4974513;28;20055;-76
2022/05/14 02:48:35;;;;;;;1.80;1.20;;;20.60;99.90;;;;;;4974341;28;20022;-74
2022/05/14 02:51:03;;;;;;;3.47;1.70;;;20.70;99.90;;;;;;4974175;28;20043;-72
2022/05/14 02:53:31;;;;;;;2.38;1.45;;;20.70;99.90;;;;;;4974481;28;20031;-74
2022/05/14 02:55:59;;;;;;;2.83;1.58;;;20.70;99.90;;;;;;4974563;28;20468;-73
2022/05/14 03:01:12;;;;;;;1.75;1.40;;;20.80;99.90;;;;;;4974413;28;20042;-75
2022/05/14 03:03:39;;;;;;;3.33;1.50;;;20.80;99.90;;;;;;4974413;28;20472;-74
2022/05/14 03:06:07;;;;;;;1.88;1.55;;;20.80;99.90;;;;;;4974184;28;20037;-74
2022/05/14 03:08:34;;;;;;;1.80;1.13;;;20.80;99.90;;;;;;4974184;28;20035;-74
2022/05/14 03:11:02;;;;;;;2.55;1.52;;;20.80;99.90;;;;;;4975173;28;20480;-72
2022/05/14 03:13:30;;;;;;;1.88;1.48;;;20.80;99.90;;;;;;4978280;28;20027;-71
2022/05/14 03:15:58;;;;;;;1.42;1.27;;;20.90;99.90;;;;;;4978226;28;20027;-73
2022/05/14 03:18:25;;;;;;;1.30;0.95;;;20.80;99.90;;;;;;4978141;28;20023;-74
2022/05/14 03:20:52;;;;;;;1.48;1.30;;;20.90;99.90;;;;;;4977980;28;20022;-74
2022/05/14 03:23:20;;;;;;;2.63;1.48;;;20.90;99.90;;;;;;4989831;28;20027;-74
2022/05/14 03:25:47;;;;;;;1.92;1.42;;;20.90;99.90;;;;;;4992880;28;20450;-73
2022/05/14 03:28:16;;;;;;;1.30;1.10;;;20.90;99.90;;;;;;4997056;28;20084;-69
2022/05/14 03:30:43;;;;;;;2.42;1.35;;;21.00;99.90;;;;;;4997017;28;20073;-71
2022/05/14 03:33:11;;;;;;;1.10;1.00;;;21.00;99.90;;;;;;4996602;28;20053;-70
2022/05/14 03:35:38;;;;;;;1.95;1.42;;;21.00;99.90;;;;;;4997054;28;20034;-74
2022/05/14 03:38:06;;;;;;;1.38;1.08;;;21.00;99.90;;;;;;4996810;28;20372;-74
2022/05/14 03:40:33;;;;;;;2.08;1.17;;;21.00;99.90;;;;;;4996806;28;20027;-74
2022/05/14 03:43:01;;;;;;;4.05;1.30;;;21.00;99.90;;;;;;4996902;28;20026;-75
2022/05/14 03:45:28;;;;;;;1.60;0.95;;;21.00;99.90;;;;;;4996604;28;20026;-69
2022/05/14 03:47:55;;;;;;;1.17;0.80;;;21.00;99.90;;;;;;4996857;28;20026;-74
2022/05/14 03:50:23;;;;;;;2.60;1.52;;;21.00;99.90;;;;;;4996273;28;20051;-69
2022/05/14 03:52:50;;;;;;;1.33;0.98;;;21.00;99.90;;;;;;4987763;28;20030;-75
2022/05/14 03:55:18;;;;;;;2.03;1.08;;;21.00;99.90;;;;;;4980606;28;20475;-75
2022/05/14 03:57:45;;;;;;;2.00;1.30;;;21.10;99.90;;;;;;4977871;28;20031;-75
2022/05/14 04:00:13;;;;;;;5.50;1.50;;;21.10;99.90;;;;;;4980133;28;20037;-74
2022/05/14 04:02:40;;;;;;;2.15;1.25;;;21.10;99.90;;;;;;4979450;28;20426;-73
2022/05/14 04:05:08;;;;;;;1.00;0.93;;;21.20;99.90;;;;;;4984630;28;20033;-75
2022/05/14 04:07:36;;;;;;;1.92;1.20;;;21.20;99.90;;;;;;4976271;28;20539;-75
2022/05/14 04:10:04;;;;;;;2.05;1.17;;;21.30;99.90;;;;;;4979001;28;20027;-75
2022/05/14 04:12:31;;;;;;;1.52;1.00;;;21.30;99.90;;;;;;4980641;28;20027;-74
2022/05/14 04:14:59;;;;;;;1.15;1.05;;;21.30;99.90;;;;;;4996412;28;20022;-74
2022/05/14 04:17:26;;;;;;;1.63;1.00;;;21.30;99.90;;;;;;4996469;28;20028;-74
2022/05/14 04:19:54;;;;;;;2.13;1.00;;;21.30;99.90;;;;;;4996286;28;20033;-75
2022/05/14 04:22:21;;;;;;;0.98;0.75;;;21.30;99.90;;;;;;4995284;28;20030;-78
2022/05/14 04:24:48;;;;;;;1.08;0.80;;;21.30;99.90;;;;;;4995768;28;20406;-76
2022/05/14 04:27:16;;;;;;;2.88;0.80;;;21.30;99.90;;;;;;4996074;28;20042;-76
2022/05/14 04:29:43;;;;;;;3.05;1.13;;;21.20;99.90;;;;;;4996131;28;20018;-75
2022/05/14 04:32:10;;;;;;;2.80;1.30;;;21.20;99.90;;;;;;4995908;28;20022;-75
2022/05/14 04:34:38;;;;;;;1.30;0.82;;;21.20;99.90;;;;;;4996169;28;20029;-75
2022/05/14 04:37:05;;;;;;;4.80;1.42;;;21.30;99.90;;;;;;4994607;28;20097;-75
2022/05/14 04:39:32;;;;;;;1.95;1.00;;;21.30;99.90;;;;;;4996122;28;20018;-75
2022/05/14 04:42:05;;;;;;;1.55;1.00;;;21.20;99.90;;;;;;4995733;28;20048;-75
2022/05/14 04:44:33;;;;;;;1.67;0.93;;;21.20;99.90;;;;;;4995952;28;20031;-75
2022/05/14 04:47:01;;;;;;;1.27;0.70;;;21.20;99.90;;;;;;4995554;28;20042;-75
2022/05/14 04:49:29;;;;;;;1.63;1.10;;;21.20;99.90;;;;;;4995541;28;20039;-73
2022/05/14 04:51:56;;;;;;;2.50;1.13;;;21.20;99.90;;;;;;4994902;28;20487;-75
2022/05/14 04:54:24;;;;;;;1.55;0.77;;;21.30;99.90;;;;;;4995166;28;20018;-71
2022/05/14 04:56:51;;;;;;;2.20;0.75;;;21.30;99.90;;;;;;4992280;28;20034;-76
2022/05/14 04:59:19;;;;;;;1.90;0.93;;;21.30;99.90;;;;;;4994852;28;20026;-69
2022/05/14 05:04:35;;;;;;;1.85;0.85;;;21.30;99.90;;;;;;4992949;28;20407;-75
2022/05/14 05:07:02;;;;;;;0.82;0.80;;;21.30;99.90;;;;;;4994462;28;20088;-72
2022/05/14 05:09:30;;;;;;;1.20;0.52;;;21.30;99.90;;;;;;4991996;28;20042;-70
2022/05/14 05:11:57;;;;;;;2.30;0.82;;;21.30;99.90;;;;;;4994457;28;20030;-70
2022/05/14 05:14:25;;;;;;;1.95;0.85;;;21.20;99.90;;;;;;4994687;28;20025;-75
2022/05/14 05:16:52;;;;;;;2.25;0.93;;;21.30;99.90;;;;;;4995018;28;20030;-70
2022/05/14 05:19:20;;;;;;;3.15;1.05;;;21.30;99.90;;;;;;4995112;28;20524;-76
2022/05/14 05:21:49;;;;;;;1.48;0.90;;;21.30;99.90;;;;;;4995275;28;20100;-76
2022/05/14 05:24:17;;;;;;;2.58;0.93;;;21.30;99.90;;;;;;4994910;28;20030;-69
2022/05/14 05:26:44;;;;;;;2.92;0.80;;;21.30;99.90;;;;;;4994869;28;20046;-70
2022/05/14 05:29:12;;;;;;;2.95;1.05;;;21.30;99.90;;;;;;4994614;28;20130;-75
2022/05/14 05:31:39;;;;;;;1.27;0.70;;;21.20;99.90;;;;;;4994877;28;20137;-70
2022/05/14 05:34:07;;;;;;;1.88;0.95;;;21.20;99.90;;;;;;4994743;28;20030;-74
2022/05/14 05:36:34;;;;;;;3.25;1.08;;;21.20;99.90;;;;;;4995011;28;20101;-71
2022/05/14 05:39:01;;;;;;;2.15;0.80;;;21.20;99.90;;;;;;4994711;28;20113;-69
2022/05/14 05:41:29;;;;;;;1.27;0.80;;;21.20;99.90;;;;;;4995088;28;20078;-70
2022/05/14 05:43:56;;;;;;;1.55;0.70;;;21.20;99.90;;;;;;4994538;28;20026;-73
2022/05/14 05:46:23;;;;;;;1.85;0.75;;;21.20;99.90;;;;;;4994794;28;20022;-74
2022/05/14 05:48:51;;;;;;;2.60;1.00;;;21.20;99.90;;;;;;4993513;28;20030;-69
2022/05/14 05:51:18;;;;;;;1.98;0.80;;;21.10;99.90;;;;;;4992914;28;20714;-70
2022/05/14 05:59:17;;;;;;;2.57;0.80;;;21.10;99.90;;;;;;4994631;28;20042;-70
2022/05/14 06:01:45;;;;;;;2.15;0.75;;;21.10;99.90;;;;;;4993903;28;20264;-74
2022/05/14 06:04:13;;;;;;;2.13;0.88;;;21.10;99.90;;;;;;4994110;28;20033;-70
2022/05/14 06:06:42;;;;;;;2.45;1.23;;;21.10;99.90;;;;;;4992268;28;20041;-74
2022/05/14 06:09:12;;;;;;;3.28;1.55;;;21.10;99.90;;;;;;4992049;28;20030;-69
2022/05/14 06:11:41;;;;;;;2.80;1.20;;;21.20;99.90;;;;;;4992365;28;20030;-70
2022/05/14 06:14:09;;;;;;;5.43;1.20;;;21.10;99.90;;;;;;4992073;28;20022;-71
2022/05/14 06:16:37;;;;;;;3.20;1.45;;;21.10;99.90;;;;;;4992158;28;20030;-74
2022/05/14 06:19:04;;;;;;;5.30;2.13;;;21.10;99.90;;;;;;4992224;28;20033;-72
2022/05/14 06:21:32;;;;;;;2.00;1.48;;;21.20;99.90;;;;;;4994118;28;20037;-69
2022/05/14 06:24:00;;;;;;;5.32;1.80;;;21.20;99.90;;;;;;4993989;28;20045;-69
2022/05/14 06:26:27;;;;;;;5.18;2.15;;;21.40;99.90;;;;;;4994040;28;20027;-76
2022/05/14 06:28:54;;;;;;;3.47;2.15;;;21.40;99.90;;;;;;4993659;28;20065;-74
2022/05/14 06:31:22;;;;;;;5.60;2.00;;;21.30;99.90;;;;;;4993145;28;20474;-76
2022/05/14 06:33:50;;;;;;;3.47;2.03;;;21.30;99.90;;;;;;4992911;28;20050;-70
2022/05/14 06:36:18;;;;;;;6.70;2.30;;;21.30;99.90;;;;;;4993336;28;20037;-75
2022/05/14 06:38:45;;;;;;;4.45;2.63;;;21.30;99.90;;;;;;4993078;28;20110;-70
2022/05/14 06:41:25;;;;;;;4.70;2.33;;;21.30;99.90;;;;;;4993162;28;20061;-70
2022/05/14 06:43:52;;;;;;;6.60;2.55;;;21.30;99.90;;;;;;4993611;28;20030;-74
2022/05/14 06:46:19;;;;;;;6.60;2.25;;;21.20;99.90;;;;;;4993540;28;20376;-73
2022/05/14 06:48:50;;;;;;;5.20;2.47;;;21.20;99.90;;;;;;4993626;28;20026;-73
2022/05/14 06:51:22;;;;;;;4.15;2.65;;;21.20;99.90;;;;;;4993543;28;20104;-72
2022/05/14 06:53:51;;;;;;;5.82;2.47;;;21.10;99.90;;;;;;4992862;28;20025;-71
2022/05/14 06:56:20;;;;;;;4.75;2.47;;;21.10;99.90;;;;;;4993650;28;20033;-72
2022/05/14 06:58:50;;;;;;;5.03;2.55;;;21.00;99.90;;;;;;4993691;28;20026;-73
2022/05/14 07:01:19;;;;;;;3.78;2.03;;;20.90;99.90;;;;;;4993466;28;20078;-70
2022/05/14 07:06:40;;;;;;;6.35;2.70;;;20.80;99.90;;;;;;4993739;28;20128;-70
2022/05/14 07:09:17;;;;;;;10.40;2.50;;;20.80;99.90;;;;;;4993452;28;20070;-70
2022/05/14 07:11:48;;;;;;;6.10;2.92;;;20.70;99.90;;;;;;4993752;28;20030;-75
2022/05/14 07:14:17;;;;;;;6.13;2.53;;;20.60;99.90;;;;;;4992767;28;20471;-73
2022/05/14 07:16:45;;;;;;;5.32;2.45;;;20.60;99.90;;;;;;4993548;28;20068;-71
2022/05/14 07:19:13;;;;;;;5.45;2.70;;;20.60;99.90;;;;;;4993386;28;20467;-74
2022/05/14 07:21:42;;;;;;;7.68;2.72;;;20.50;99.90;;;;;;4993495;28;20037;-72
2022/05/14 07:24:13;;;;;;;5.05;2.42;;;20.50;99.90;;;;;;4993202;28;20541;-71
2022/05/14 07:26:41;;;;;;;7.15;2.90;;;20.40;99.90;;;;;;4993265;28;20394;-69
2022/05/14 07:29:12;;;;;;;6.15;3.08;;;20.40;99.90;;;;;;4992589;28;20037;-71
2022/05/14 07:31:39;;;;;;;5.75;2.95;;;20.40;99.90;;;;;;4992201;28;20026;-70
2022/05/14 07:34:08;;;;;;;8.48;3.10;;;20.30;99.90;;;;;;4974029;28;20041;-70
2022/05/14 07:36:47;;;;;;;4.53;3.03;;;20.30;99.90;;;;;;4973921;28;20022;-73
2022/05/14 07:39:16;;;;;;;5.35;2.92;;;20.30;99.90;;;;;;4973877;28;20027;-75
2022/05/14 07:41:48;;;;;;;7.05;2.92;;;20.30;99.90;;;;;;4973888;28;20471;-70
2022/05/14 07:44:21;;;;;;;4.93;2.80;;;20.30;99.90;;;;;;4973678;28;20034;-72
2022/05/14 07:46:49;;;;;;;4.25;3.10;;;20.20;99.90;;;;;;4973670;28;20499;-74
2022/05/14 07:49:18;;;;;;;6.07;3.65;;;20.20;99.90;;;;;;4973387;28;20047;-74
2022/05/14 07:51:45;;;;;;;7.97;3.75;;;20.20;99.90;;;;;;4973903;28;20442;-74
2022/05/14 07:54:13;;;;;;;7.78;3.20;;;20.10;99.90;;;;;;4973647;28;20115;-70
2022/05/14 07:56:42;;;;;;;12.43;3.42;;;20.10;99.90;;;;;;4973399;28;20081;-74
2022/05/14 07:59:10;;;;;;;9.75;3.15;;;20.10;99.90;;;;;;4976329;28;20379;-73
2022/05/14 08:01:40;;;;;;;9.48;3.72;;;20.00;99.90;;;;;;4977316;28;20538;-72
2022/05/14 08:04:08;;;;;;;6.97;3.67;;;20.00;99.90;;;;;;4983691;28;20507;-71
2022/05/14 08:06:36;;;;;;;8.80;3.15;;;19.90;99.90;;;;;;4994126;28;20018;-71
2022/05/14 08:09:05;;;;;;;4.75;3.22;;;19.90;99.90;;;;;;5009168;28;20023;-71
2022/05/14 08:11:34;;;;;;;10.07;2.97;;;19.90;99.90;;;;;;5004749;28;20025;-70
2022/05/14 08:14:01;;;;;;;6.15;3.33;;;19.90;99.90;;;;;;5001203;28;20027;-70
2022/05/14 08:16:29;;;;;;;10.68;3.25;;;19.90;99.90;;;;;;5010017;28;20479;-70
2022/05/14 08:18:57;;;;;;;4.88;2.55;;;19.90;99.90;;;;;;5009896;28;20359;-74
2022/05/14 08:26:59;;;;;;;5.50;3.08;;;19.70;99.90;;;;;;4983797;28;20042;-70
2022/05/14 08:29:27;;;;;;;9.10;3.05;;;19.70;99.90;;;;;;5005847;28;20379;-71
2022/05/14 08:31:54;;;;;;;7.18;3.10;;;19.70;99.90;;;;;;4997101;28;20105;-75
2022/05/14 08:34:21;;;;;;;10.32;3.25;;;19.60;99.90;;;;;;4978196;28;20027;-76
2022/05/14 08:36:49;;;;;;;7.20;2.90;;;19.60;99.90;;;;;;4975130;28;20026;-75
2022/05/14 08:39:16;;;;;;;5.95;3.38;;;19.60;99.90;;;;;;4975328;28;20026;-75
2022/05/14 08:41:48;;;;;;;6.28;2.95;;;19.50;99.90;;;;;;4975419;28;20373;-75
2022/05/14 08:44:32;;;;;;;6.32;3.75;;;19.50;99.90;;;;;;4975380;28;20077;-75
2022/05/14 08:47:22;;;;;;;7.53;2.95;;;19.50;99.90;;;;;;4974977;28;20059;-75
2022/05/14 08:49:53;;;;;;;7.43;3.15;;;19.40;99.90;;;;;;4976127;28;20039;-75
2022/05/14 08:52:24;;;;;;;8.43;3.67;;;19.40;99.90;;;;;;4975244;28;20050;-75
2022/05/14 08:54:57;;;;;;;10.35;3.70;;;19.40;99.90;;;;;;4974857;28;20023;-75
2022/05/14 08:57:31;;;;;;;4.93;3.15;;;19.30;99.90;;;;;;4974010;28;20027;-75
2022/05/14 09:00:00;;;;;;;5.40;3.05;;;19.30;99.90;;;;;;4974942;28;20762;-75
2022/05/14 09:02:30;;;;;;;5.53;2.92;;;19.30;99.90;;;;;;4975711;28;20035;-75
2022/05/14 09:05:03;;;;;;;4.28;2.75;;;19.30;99.90;;;;;;4975075;28;20023;-75
2022/05/14 09:07:31;;;;;;;9.43;3.53;;;19.30;99.90;;;;;;4989619;28;20034;-75
2022/05/14 09:09:59;;;;;;;6.97;3.33;;;19.30;99.90;;;;;;4974055;28;20436;-75
2022/05/14 09:12:34;;;;;;;6.28;3.00;;;19.20;99.90;;;;;;4975267;28;20114;-74
2022/05/14 09:15:04;;;;;;;;;;;19.20;99.90;;;;;;4975128;28;20018;-75
2022/05/14 09:17:32;;;;;;;8.52;3.10;;;19.20;99.90;;;;;;4974713;28;19997;-75
2022/05/14 09:20:00;;;;;;;5.15;3.13;;;19.20;99.90;;;;;;4974742;28;20416;-75
2022/05/14 09:22:49;;;;;;;10.63;3.00;;;19.10;99.90;;;;;;4975114;28;20038;-74
2022/05/14 09:25:33;;;;;;;9.00;3.20;;;19.10;99.90;;;;;;4973510;28;20023;-75
2022/05/14 09:28:04;;;;;;;4.35;2.50;;;19.20;99.90;;;;;;4974663;28;20066;-75
2022/05/14 09:30:35;;;;;;;7.05;2.83;;;19.10;99.90;;;;;;4975772;28;20038;-75
2022/05/14 09:33:04;;;;;;;8.82;3.28;;;19.10;99.90;;;;;;4974183;28;20026;-75
2022/05/14 09:35:33;;;;;;;6.00;2.63;;;19.10;99.90;;;;;;4974648;28;20078;-75
2022/05/14 09:38:28;;;;;;;5.78;3.25;;;19.10;99.90;;;;;;4974575;28;20025;-75
2022/05/14 09:41:08;;;;;;;6.93;2.50;;;19.10;99.90;;;;;;4973192;28;20519;-74
2022/05/14 09:43:39;;;;;;;2.85;2.53;;;19.00;99.90;;;;;;4974461;28;20027;-75
2022/05/14 09:46:28;;;;;;;6.40;2.75;;;19.10;99.90;;;;;;4976618;28;20026;-75
2022/05/14 09:49:09;;;;;;;5.00;2.85;;;19.10;99.90;;;;;;4973746;28;20542;-74
2022/05/14 09:52:04;;;;;;;5.22;2.72;;;19.00;99.90;;;;;;4974354;28;20026;-75
2022/05/14 09:54:45;;;;;;;5.68;2.65;;;19.00;99.90;;;;;;4975073;28;20022;-75
2022/05/14 09:57:43;;;;;;;5.43;2.85;;;19.00;99.90;;;;;;4974139;28;20027;-74
2022/05/14 10:00:16;;;;;;;5.32;3.08;;;19.00;99.90;;;;;;4974095;28;20026;-75
2022/05/14 10:02:57;;;;;;;5.55;2.75;;;19.00;99.90;;;;;;4974987;28;20022;-75
2022/05/14 10:05:55;;;;;;;7.07;3.13;;;19.00;99.90;;;;;;4988990;28;20030;-75
2022/05/14 10:09:06;;;;;;;4.82;3.00;;;19.00;99.90;;;;;;4958907;28;20039;-74
2022/05/14 10:11:44;;;;;;;4.80;2.83;;;19.00;99.90;;;;;;4929769;29;20020;-74
2022/05/14 10:14:20;;;;;;;4.35;2.92;;;19.00;99.90;;;;;;4931988;29;20031;-75
2022/05/14 10:17:37;;;;;;;5.00;3.20;;;19.00;99.90;;;;;;4960094;28;20050;-74
2022/05/14 10:20:28;;;;;;;4.25;2.67;;;19.00;99.90;;;;;;4988106;28;20130;-74
2022/05/14 10:29:20;;;;;;;4.75;3.03;;;19.00;99.90;;;;;;4973173;28;20034;-74
2022/05/14 10:31:47;;;;;;;5.85;3.15;;;19.00;99.90;;;;;;4973207;28;20480;-75
2022/05/14 10:34:21;;;;;;;7.97;3.15;;;19.00;99.90;;;;;;4973194;28;20106;-75
2022/05/14 10:37:23;;;;;;;5.30;2.67;;;19.00;99.90;;;;;;4973081;28;20023;-74
2022/05/14 10:40:29;;;;;;;3.60;2.90;;;19.00;99.90;;;;;;4971680;28;20046;-75
2022/05/14 10:43:09;;;;;;;4.15;2.55;;;19.00;99.90;;;;;;4973788;28;20026;-75
2022/05/14 10:45:42;;;;;;;5.50;2.90;;;19.00;99.90;;;;;;4976203;28;20053;-75
2022/05/14 10:48:42;;;;;;;9.00;2.80;;;19.00;99.90;;;;;;4973551;28;20038;-74
2022/05/14 10:51:13;;;;;;;3.90;3.00;;;19.00;99.90;;;;;;4973410;28;20055;-75
2022/05/14 10:53:42;;;;;;;8.73;3.17;;;19.00;99.90;;;;;;4973490;28;20026;-75
2022/05/14 10:56:29;;;;;;;3.85;2.60;;;19.00;99.90;;;;;;4973474;28;20181;-76
2022/05/14 10:59:03;;;;;;;5.93;2.72;;;19.00;99.90;;;;;;4973480;28;20448;-76
2022/05/14 11:01:42;;;;;;;5.13;3.45;;;19.00;99.90;;;;;;4991127;28;20029;-76
2022/05/14 11:04:23;;;;;;;3.92;2.85;;;19.00;99.90;;;;;;4977081;28;20033;-72
2022/05/14 11:07:03;;;;;;;5.30;3.10;;;18.90;99.90;;;;;;4980027;28;20069;-74
2022/05/14 11:09:47;;;;;;;2.92;2.45;;;18.90;99.90;;;;;;5003284;28;20061;-75
2022/05/14 11:12:21;;;;;;;8.85;3.17;;;18.90;99.90;;;;;;4989590;28;20113;-70
2022/05/14 11:14:54;;;;;;;4.63;2.90;;;18.90;99.90;;;;;;4987825;28;20015;-75
2022/05/14 11:17:40;;;;;;;3.65;2.67;;;19.00;99.90;;;;;;4974091;28;20054;-70
2022/05/14 11:20:18;;;;;;;5.93;2.60;;;19.00;99.90;;;;;;4973586;28;20030;-70
2022/05/14 11:22:52;;;;;;;4.35;3.08;;;19.00;99.90;;;;;;4974171;28;20034;-74
2022/05/14 11:25:22;;;;;;;4.72;3.72;;;18.90;99.90;;;;;;4974226;28;20488;-71
2022/05/14 11:28:16;;;;;;;4.32;2.95;;;19.00;99.90;;;;;;4973555;28;20094;-71
2022/05/14 11:30:51;;;;;;;4.75;3.03;;;18.90;99.90;;;;;;4973332;28;20106;-70
2022/05/14 11:33:38;;;;;;;5.88;3.28;;;18.90;99.90;;;;;;4977316;28;20122;-74
2022/05/14 11:36:12;;;;;;;4.85;2.88;;;18.90;99.90;;;;;;4977749;28;20023;-70
2022/05/14 11:38:43;;;;;;;5.03;2.85;;;18.90;99.90;;;;;;4991130;28;20397;-71
2022/05/14 11:41:30;;;;;;;4.00;3.35;;;18.90;99.90;;;;;;4996441;28;20487;-69
2022/05/14 11:43:58;;;;;;;6.38;3.40;;;18.90;99.90;;;;;;4996514;28;20027;-70
2022/05/14 11:46:50;;;;;;;4.60;2.78;;;18.90;99.90;;;;;;4996466;28;20037;-70
2022/05/14 11:49:29;;;;;;;5.05;3.30;;;19.00;99.90;;;;;;4996849;28;20050;-74
2022/05/14 11:52:17;;;;;;;6.28;3.92;;;19.00;99.90;;;;;;4996521;28;20072;-74
2022/05/14 11:55:06;;;;;;;4.50;3.05;;;18.90;99.90;;;;;;4996469;28;20031;-69
2022/05/14 11:57:37;;;;;;;4.35;3.15;;;18.90;99.90;;;;;;4996631;28;20399;-71
2022/05/14 12:00:10;;;;;;;5.18;2.78;;;19.00;99.90;;;;;;4996151;28;20109;-70
2022/05/14 12:02:41;;;;;;;3.97;3.30;;;18.90;99.90;;;;;;4996174;28;20046;-70
2022/05/14 12:05:33;;;;;;;5.53;3.42;;;18.90;99.90;;;;;;4996804;28;20050;-74
2022/05/14 12:08:22;;;;;;;7.32;3.45;;;18.90;99.90;;;;;;4996136;28;20074;-70
2022/05/14 12:11:28;;;;;;;6.30;3.35;;;18.90;99.90;;;;;;5002571;28;20030;-70
2022/05/14 12:14:08;;;;;;;4.82;3.50;;;18.90;99.90;;;;;;5014966;28;20032;-74
2022/05/14 12:16:40;;;;;;;5.22;3.22;;;18.90;99.90;;;;;;5013955;28;20037;-70
2022/05/14 12:19:21;;;;;;;4.38;2.70;;;19.00;99.90;;;;;;5015352;28;20033;-69
2022/05/14 12:22:01;;;;;;;7.78;3.25;;;18.90;99.90;;;;;;5014341;28;20108;-70
2022/05/14 12:24:32;;;;;;;9.55;3.28;;;18.90;99.90;;;;;;5016013;28;20561;-70
2022/05/14 12:27:00;;;;;;;4.78;3.33;;;18.90;99.90;;;;;;5015847;28;20038;-73
2022/05/14 12:29:33;;;;;;;4.13;2.90;;;18.90;99.90;;;;;;5015665;28;20026;-70
2022/05/14 12:34:57;;;;;;;;;;;18.80;99.90;;;;;;5014655;28;20025;-73
2022/05/14 12:37:34;;;;;;;3.92;3.28;;;18.90;99.90;;;;;;5008206;28;19914;-74
2022/05/14 12:40:02;;;;;;;4.88;2.88;;;18.80;99.90;;;;;;4995717;28;20022;-73
2022/05/14 12:42:43;;;;;;;5.22;3.25;;;18.80;99.90;;;;;;4994759;28;20041;-70
2022/05/14 12:45:12;;;;;;;9.65;3.58;;;18.80;99.90;;;;;;4995313;28;20028;-74
2022/05/14 12:47:40;;;;;;;7.60;3.60;;;18.80;99.90;;;;;;4995416;28;20062;-70
2022/05/14 12:50:21;;;;;;;3.55;2.85;;;18.80;99.90;;;;;;4995266;28;20055;-74
2022/05/14 12:53:01;;;;;;;6.13;3.28;;;18.70;99.90;;;;;;4995715;28;20475;-74
2022/05/14 12:55:31;;;;;;;3.45;3.15;;;18.70;99.90;;;;;;4995895;28;20030;-74
2022/05/14 12:58:02;;;;;;;8.85;3.80;;;18.80;99.90;;;;;;4995922;28;20521;-74
2022/05/14 13:00:31;;;;;;;4.95;3.70;;;18.70;99.90;;;;;;4995666;28;20038;-70
2022/05/14 13:03:09;;;;;;;4.35;3.78;;;18.80;99.90;;;;;;4995580;28;20418;-74
2022/05/14 13:05:48;;;;;;;5.57;3.25;;;18.80;99.90;;;;;;4975107;28;20105;-74
2022/05/14 13:08:22;;;;;;;4.72;3.20;;;18.70;99.90;;;;;;4975259;28;20043;-75
2022/05/14 13:10:59;;;;;;;5.20;3.42;;;18.70;99.90;;;;;;4975673;28;20019;-70
2022/05/14 13:13:44;;;;;;;5.22;4.03;;;18.70;99.90;;;;;;4975704;28;20038;-74
2022/05/14 13:16:19;;;;;;;6.97;3.45;;;18.70;99.90;;;;;;4975797;28;20030;-73
2022/05/14 13:18:57;;;;;;;4.93;3.55;;;18.70;99.90;;;;;;4975119;28;20501;-73
2022/05/14 13:21:28;;;;;;;4.53;3.13;;;18.70;99.90;;;;;;4975199;28;20027;-71
2022/05/14 13:24:20;;;;;;;5.35;3.35;;;18.70;99.90;;;;;;4971476;28;20023;-73
2022/05/14 13:26:50;;;;;;;3.70;2.83;;;18.70;99.90;;;;;;4976056;28;20031;-74
2022/05/14 13:29:35;;;;;;;11.32;3.38;;;18.70;99.90;;;;;;4975687;28;20106;-74
2022/05/14 13:32:33;;;;;;;4.45;3.55;;;18.60;99.90;;;;;;4975469;28;20037;-70
2022/05/14 13:37:56;;;;;;;6.80;3.38;;;18.60;99.90;;;;;;4975366;28;20042;-74
2022/05/14 13:40:28;;;;;;;4.43;3.63;;;18.60;99.90;;;;;;4974472;28;20031;-70
2022/05/14 13:43:13;;;;;;;5.13;3.25;;;18.60;99.90;;;;;;4973759;28;20531;-74
2022/05/14 13:45:52;;;;;;;4.18;3.45;;;18.60;99.90;;;;;;4975446;28;20472;-74
2022/05/14 13:48:29;;;;;;;6.32;3.83;;;18.60;99.90;;;;;;4975352;28;20094;-71